createdAt,value
2022-12-31T00:00:35.641Z,0
2022-12-31T00:01:16.151Z,0
2022-12-31T00:01:56.710Z,0
2022-12-31T00:02:37.287Z,0
2022-12-31T00:03:17.848Z,0
2022-12-31T00:03:58.229Z,0
2022-12-31T00:04:38.753Z,0
2022-12-31T00:05:19.284Z,0
2022-12-31T00:05:59.833Z,0
2022-12-31T00:09:33.734Z,0
2022-12-31T00:10:14.266Z,0
2022-12-31T00:10:54.851Z,0
2022-12-31T00:11:35.369Z,0
2022-12-31T00:15:38.606Z,0
2022-12-31T00:16:19.218Z,0
2022-12-31T00:16:59.724Z,0
2022-12-31T00:17:40.217Z,0
2022-12-31T00:18:20.751Z,0
2022-12-31T00:19:01.291Z,0
2022-12-31T00:19:41.778Z,0
2022-12-31T00:20:22.315Z,0
2022-12-31T00:21:02.823Z,0
2022-12-31T00:21:43.326Z,0
2022-12-31T00:27:08.480Z,0
2022-12-31T00:27:49.029Z,0
2022-12-31T00:28:29.555Z,0
2022-12-31T00:29:10.074Z,0
2022-12-31T00:29:50.577Z,0
2022-12-31T00:30:31.146Z,0
2022-12-31T00:31:11.748Z,0
2022-12-31T00:31:52.202Z,0
2022-12-31T00:32:32.762Z,0
2022-12-31T00:33:13.336Z,0
2022-12-31T00:39:59.681Z,0
2022-12-31T00:40:40.219Z,0
2022-12-31T00:41:20.769Z,0
2022-12-31T00:42:01.290Z,0
2022-12-31T00:42:41.871Z,0
2022-12-31T00:43:22.389Z,0
2022-12-31T00:44:02.932Z,0
2022-12-31T00:48:32.913Z,0
2022-12-31T00:49:13.450Z,0
2022-12-31T00:49:53.994Z,0
2022-12-31T00:50:34.535Z,0
2022-12-31T00:54:37.750Z,0
2022-12-31T00:55:18.267Z,0
2022-12-31T00:55:58.783Z,0
2022-12-31T00:56:39.308Z,0
2022-12-31T00:57:19.824Z,0
2022-12-31T00:58:00.341Z,0
2022-12-31T00:58:40.880Z,0
2022-12-31T00:59:21.382Z,0
2022-12-31T01:04:58.418Z,0
2022-12-31T01:05:39.474Z,0
2022-12-31T01:06:21.383Z,0
2022-12-31T01:07:01.906Z,0
2022-12-31T01:09:15.464Z,0
2022-12-31T01:09:56.024Z,0
2022-12-31T01:10:36.548Z,0
2022-12-31T01:11:17.055Z,0
2022-12-31T01:14:40.351Z,0
2022-12-31T01:15:20.893Z,0
2022-12-31T01:16:01.532Z,0
2022-12-31T01:16:41.995Z,0
2022-12-31T01:17:22.531Z,0
2022-12-31T01:18:03.073Z,0
2022-12-31T01:18:43.615Z,0
2022-12-31T01:19:24.151Z,0
2022-12-31T01:20:04.672Z,0
2022-12-31T01:26:10.294Z,0
2022-12-31T01:26:50.866Z,0
2022-12-31T01:27:31.471Z,0
2022-12-31T01:28:12.035Z,0
2022-12-31T01:28:52.535Z,0
2022-12-31T01:29:33.116Z,0
2022-12-31T01:30:13.710Z,0
2022-12-31T01:30:54.322Z,0
2022-12-31T01:39:29.133Z,0
2022-12-31T01:40:09.682Z,0
2022-12-31T01:40:51.880Z,0
2022-12-31T01:41:32.359Z,0
2022-12-31T01:42:13.506Z,0
2022-12-31T01:42:57.647Z,0
2022-12-31T01:47:15.380Z,0
2022-12-31T01:47:56.612Z,0
2022-12-31T01:48:37.881Z,0
2022-12-31T01:49:18.387Z,0
2022-12-31T01:51:38.180Z,0
2022-12-31T01:52:18.681Z,0
2022-12-31T01:52:59.410Z,0
2022-12-31T01:53:40.964Z,0
2022-12-31T01:55:02.907Z,0
2022-12-31T01:55:43.463Z,0
2022-12-31T01:56:24.986Z,0
2022-12-31T01:57:05.535Z,0
2022-12-31T01:57:46.019Z,0
2022-12-31T02:02:09.151Z,0
2022-12-31T02:02:49.724Z,0
2022-12-31T02:03:30.265Z,0
2022-12-31T02:04:10.695Z,0
2022-12-31T02:08:13.881Z,0
2022-12-31T02:08:54.414Z,0
2022-12-31T02:09:34.971Z,0
2022-12-31T02:10:15.490Z,0
2022-12-31T02:12:54.484Z,0
2022-12-31T02:13:35.133Z,0
2022-12-31T02:14:15.789Z,0
2022-12-31T02:14:56.273Z,0
2022-12-31T02:18:59.879Z,0
2022-12-31T02:19:40.525Z,0
2022-12-31T02:20:21.216Z,0
2022-12-31T02:21:01.714Z,0
2022-12-31T02:21:42.254Z,0
2022-12-31T02:22:22.770Z,0
2022-12-31T02:23:03.295Z,0
2022-12-31T02:23:43.809Z,0
2022-12-31T02:31:21.895Z,0
2022-12-31T02:32:02.438Z,0
2022-12-31T02:32:43.024Z,0
2022-12-31T02:33:23.604Z,0
2022-12-31T02:36:17.195Z,0
2022-12-31T02:36:57.781Z,0
2022-12-31T02:37:38.357Z,0
2022-12-31T02:38:19.725Z,0
2022-12-31T02:41:54.503Z,0
2022-12-31T02:42:35.151Z,0
2022-12-31T02:43:15.644Z,0
2022-12-31T02:43:56.172Z,0
2022-12-31T02:47:59.565Z,0
2022-12-31T02:48:40.768Z,0
2022-12-31T02:49:21.326Z,0
2022-12-31T02:50:01.834Z,0
2022-12-31T02:50:42.994Z,0
2022-12-31T02:51:23.648Z,0
2022-12-31T02:57:24.818Z,0
2022-12-31T02:58:07.638Z,0
2022-12-31T02:58:48.758Z,0
2022-12-31T02:59:29.315Z,0
2022-12-31T03:01:43.072Z,0
2022-12-31T03:02:23.546Z,0
2022-12-31T03:03:03.978Z,0
2022-12-31T03:03:44.436Z,0
2022-12-31T03:05:57.511Z,0
2022-12-31T03:06:38.063Z,0
2022-12-31T03:07:18.567Z,0
2022-12-31T03:07:59.120Z,0
2022-12-31T03:10:17.247Z,0
2022-12-31T03:10:57.775Z,0
2022-12-31T03:11:38.321Z,0
2022-12-31T03:12:18.880Z,0
2022-12-31T03:15:12.442Z,0
2022-12-31T03:15:52.981Z,0
2022-12-31T03:16:33.510Z,0
2022-12-31T03:17:14.033Z,0
2022-12-31T03:20:37.520Z,0
2022-12-31T03:21:18.074Z,0
2022-12-31T03:21:58.628Z,0
2022-12-31T03:22:39.139Z,0
2022-12-31T03:23:19.698Z,0
2022-12-31T03:24:00.201Z,0
2022-12-31T03:24:40.753Z,0
2022-12-31T03:25:21.299Z,0
2022-12-31T03:26:01.842Z,0
2022-12-31T03:30:18.320Z,0
2022-12-31T03:30:58.882Z,0
2022-12-31T03:31:39.491Z,0
2022-12-31T03:32:21.494Z,0
2022-12-31T03:34:35.110Z,0
2022-12-31T03:35:15.780Z,0
2022-12-31T03:35:56.232Z,0
2022-12-31T03:36:36.729Z,0
2022-12-31T03:40:40.133Z,0
2022-12-31T03:41:20.644Z,0
2022-12-31T03:42:01.205Z,0
2022-12-31T03:42:41.799Z,0
2022-12-31T03:43:22.312Z,0
2022-12-31T03:44:02.842Z,0
2022-12-31T03:44:43.399Z,0
2022-12-31T03:45:23.898Z,0
2022-12-31T03:48:02.675Z,0
2022-12-31T03:48:43.232Z,0
2022-12-31T03:49:23.777Z,0
2022-12-31T03:50:04.318Z,0
2022-12-31T03:54:19.942Z,0
2022-12-31T03:55:00.378Z,0
2022-12-31T03:55:40.907Z,0
2022-12-31T03:56:21.389Z,0
2022-12-31T03:58:24.227Z,0
2022-12-31T03:59:04.753Z,0
2022-12-31T04:01:17.916Z,0
2022-12-31T04:01:58.506Z,0
2022-12-31T04:02:39.141Z,0
2022-12-31T04:03:19.635Z,0
2022-12-31T04:07:22.831Z,0
2022-12-31T04:08:03.345Z,0
2022-12-31T04:08:43.873Z,0
2022-12-31T04:10:57.117Z,0
2022-12-31T04:11:38.559Z,0
2022-12-31T04:12:19.153Z,0
2022-12-31T04:12:59.737Z,0
2022-12-31T04:14:21.635Z,0
2022-12-31T04:15:03.085Z,0
2022-12-31T04:15:43.585Z,0
2022-12-31T04:16:24.782Z,0
2022-12-31T04:17:05.283Z,0
2022-12-31T04:17:47.614Z,0
2022-12-31T04:23:28.548Z,0
2022-12-31T04:24:09.748Z,0
2022-12-31T04:24:50.329Z,0
2022-12-31T04:25:30.829Z,0
2022-12-31T04:27:33.279Z,0
2022-12-31T04:28:14.774Z,0
2022-12-31T04:28:55.303Z,0
2022-12-31T04:29:35.848Z,0
2022-12-31T04:30:18.086Z,0
2022-12-31T04:35:43.581Z,0
2022-12-31T04:36:24.121Z,0
2022-12-31T04:38:37.208Z,0
2022-12-31T04:39:17.752Z,0
2022-12-31T04:40:03.661Z,0
2022-12-31T04:40:38.836Z,0
2022-12-31T04:43:19.159Z,0
2022-12-31T04:44:06.271Z,0
2022-12-31T04:44:48.939Z,0
2022-12-31T04:45:35.178Z,0
2022-12-31T04:46:19.369Z,0
2022-12-31T04:47:03.414Z,0
2022-12-31T04:47:49.816Z,0
2022-12-31T04:48:33.349Z,0
2022-12-31T04:49:20.021Z,0
2022-12-31T04:52:17.154Z,0
2022-12-31T04:52:57.700Z,0
2022-12-31T04:53:39.179Z,0
2022-12-31T04:54:20.187Z,0
2022-12-31T04:57:13.520Z,0
2022-12-31T04:57:54.067Z,0
2022-12-31T04:58:34.699Z,0
2022-12-31T04:59:15.269Z,0
2022-12-31T05:01:58.628Z,0
2022-12-31T05:02:39.273Z,0
2022-12-31T05:03:19.610Z,0
2022-12-31T05:05:58.411Z,0
2022-12-31T05:06:39.066Z,0
2022-12-31T05:07:19.584Z,0
2022-12-31T05:08:00.167Z,0
2022-12-31T05:10:43.275Z,0
2022-12-31T05:11:24.665Z,0
2022-12-31T05:13:53.040Z,0
2022-12-31T05:14:33.522Z,0
2022-12-31T05:15:14.752Z,0
2022-12-31T05:15:56.187Z,0
2022-12-31T05:17:57.781Z,0
2022-12-31T05:18:38.326Z,0
2022-12-31T05:19:18.884Z,0
2022-12-31T05:21:57.380Z,0
2022-12-31T05:22:37.934Z,0
2022-12-31T05:23:18.505Z,0
2022-12-31T05:23:59.032Z,0
2022-12-31T05:27:34.797Z,0
2022-12-31T05:28:15.299Z,0
2022-12-31T05:28:55.886Z,0
2022-12-31T05:31:34.512Z,0
2022-12-31T05:32:15.065Z,0
2022-12-31T05:32:55.617Z,0
2022-12-31T05:33:36.128Z,0
2022-12-31T05:37:39.362Z,0
2022-12-31T05:38:19.869Z,0
2022-12-31T05:39:01.121Z,0
2022-12-31T05:39:41.663Z,0
2022-12-31T05:42:09.805Z,0
2022-12-31T05:42:50.363Z,0
2022-12-31T05:43:30.887Z,0
2022-12-31T05:44:11.599Z,0
2022-12-31T05:47:34.598Z,0
2022-12-31T05:48:14.983Z,0
2022-12-31T05:48:55.469Z,0
2022-12-31T05:49:35.957Z,0
2022-12-31T05:50:16.524Z,0
2022-12-31T05:50:57.351Z,0
2022-12-31T05:51:37.896Z,0
2022-12-31T05:52:18.456Z,0
2022-12-31T05:54:47.022Z,0
2022-12-31T05:55:28.335Z,0
2022-12-31T05:56:08.852Z,0
2022-12-31T05:56:49.398Z,0
2022-12-31T05:59:31.573Z,0
2022-12-31T06:00:12.191Z,0
2022-12-31T06:00:52.708Z,0
2022-12-31T06:01:33.396Z,0
2022-12-31T06:02:14.564Z,0
2022-12-31T06:02:55.161Z,0
2022-12-31T06:03:35.718Z,0
2022-12-31T06:04:16.170Z,0
2022-12-31T06:10:07.741Z,0
2022-12-31T06:10:48.285Z,0
2022-12-31T06:11:28.786Z,0
2022-12-31T06:12:09.326Z,0
2022-12-31T06:14:23.852Z,0
2022-12-31T06:15:04.471Z,0
2022-12-31T06:15:45.003Z,0
2022-12-31T06:16:25.501Z,0
2022-12-31T06:19:09.304Z,0
2022-12-31T06:19:49.836Z,0
2022-12-31T06:20:30.374Z,0
2022-12-31T06:21:10.872Z,0
2022-12-31T06:21:53.393Z,0
2022-12-31T06:26:09.368Z,0
2022-12-31T06:26:50.234Z,0
2022-12-31T06:27:30.887Z,0
2022-12-31T06:28:17.936Z,0
2022-12-31T06:30:15.089Z,0
2022-12-31T06:30:55.726Z,0
2022-12-31T06:31:36.362Z,0
2022-12-31T06:32:17.559Z,0
2022-12-31T06:32:58.048Z,0
2022-12-31T06:33:38.665Z,0
2022-12-31T06:37:44.501Z,0
2022-12-31T06:40:13.860Z,0
2022-12-31T06:40:54.483Z,0
2022-12-31T06:41:35.021Z,0
2022-12-31T06:42:15.562Z,0
2022-12-31T06:44:54.904Z,0
2022-12-31T06:45:35.468Z,0
2022-12-31T06:46:16.628Z,0
2022-12-31T06:46:57.119Z,0
2022-12-31T06:49:10.203Z,0
2022-12-31T06:49:50.754Z,0
2022-12-31T06:50:31.381Z,0
2022-12-31T06:51:16.713Z,0
2022-12-31T06:55:15.048Z,0
2022-12-31T06:55:56.367Z,0
2022-12-31T06:56:36.862Z,0
2022-12-31T06:59:15.891Z,0
2022-12-31T06:59:57.030Z,0
2022-12-31T07:00:37.569Z,0
2022-12-31T07:01:18.111Z,0
2022-12-31T07:05:32.608Z,0
2022-12-31T07:06:13.125Z,0
2022-12-31T07:06:53.643Z,0
2022-12-31T07:07:34.166Z,0
2022-12-31T07:11:37.291Z,0
2022-12-31T07:12:17.819Z,0
2022-12-31T07:12:58.360Z,0
2022-12-31T07:15:36.904Z,0
2022-12-31T07:16:17.535Z,0
2022-12-31T07:16:58.436Z,0
2022-12-31T07:17:38.973Z,0
2022-12-31T07:20:21.930Z,0
2022-12-31T07:21:02.488Z,0
2022-12-31T07:21:42.986Z,5
2022-12-31T07:22:23.543Z,5
2022-12-31T07:23:04.064Z,5
2022-12-31T07:25:43.227Z,5
2022-12-31T07:26:24.572Z,5
2022-12-31T07:27:05.137Z,5
2022-12-31T07:27:45.660Z,5
2022-12-31T07:29:48.239Z,10
2022-12-31T07:32:26.468Z,10
2022-12-31T07:33:07.022Z,10
2022-12-31T07:33:47.575Z,15
2022-12-31T07:34:28.101Z,15
2022-12-31T07:37:51.438Z,20
2022-12-31T07:38:32.806Z,20
2022-12-31T07:39:13.336Z,20
2022-12-31T07:39:53.886Z,20
2022-12-31T07:40:34.417Z,25
2022-12-31T07:41:14.940Z,25
2022-12-31T07:41:55.456Z,25
2022-12-31T07:42:35.988Z,25
2022-12-31T07:48:02.864Z,30
2022-12-31T07:48:41.641Z,30
2022-12-31T07:49:22.179Z,30
2022-12-31T07:52:00.493Z,30
2022-12-31T07:52:41.037Z,30
2022-12-31T07:53:21.577Z,30
2022-12-31T07:54:02.122Z,30
2022-12-31T07:58:05.236Z,40
2022-12-31T07:58:47.162Z,45
2022-12-31T07:59:27.659Z,45
2022-12-31T08:02:05.953Z,50
2022-12-31T08:02:46.450Z,55
2022-12-31T08:03:26.971Z,55
2022-12-31T08:04:07.473Z,55
2022-12-31T08:07:30.811Z,50
2022-12-31T08:08:12.257Z,50
2022-12-31T08:08:52.772Z,55
2022-12-31T08:09:33.298Z,55
2022-12-31T08:10:17.633Z,55
2022-12-31T08:10:54.332Z,60
2022-12-31T08:11:34.860Z,60
2022-12-31T08:12:15.396Z,60
2022-12-31T08:17:01.263Z,60
2022-12-31T08:17:41.761Z,60
2022-12-31T08:18:22.280Z,60
2022-12-31T08:19:02.834Z,65
2022-12-31T08:21:41.030Z,65
2022-12-31T08:22:21.574Z,65
2022-12-31T08:23:02.076Z,65
2022-12-31T08:23:42.600Z,70
2022-12-31T08:27:05.967Z,75
2022-12-31T08:27:46.543Z,80
2022-12-31T08:28:27.085Z,85
2022-12-31T08:29:07.596Z,90
2022-12-31T08:29:48.124Z,90
2022-12-31T08:30:28.631Z,95
2022-12-31T08:31:09.243Z,95
2022-12-31T08:31:49.764Z,95
2022-12-31T08:32:30.193Z,95
2022-12-31T08:36:04.716Z,85
2022-12-31T08:36:45.203Z,85
2022-12-31T08:37:25.792Z,85
2022-12-31T08:38:06.337Z,90
2022-12-31T08:42:09.680Z,90
2022-12-31T08:42:50.211Z,90
2022-12-31T08:43:30.823Z,90
2022-12-31T08:44:11.378Z,95
2022-12-31T08:44:51.919Z,100
2022-12-31T08:45:32.534Z,100
2022-12-31T08:46:13.136Z,100
2022-12-31T08:46:53.571Z,105
2022-12-31T08:47:38.241Z,105
2022-12-31T08:54:19.640Z,105
2022-12-31T08:55:00.186Z,105
2022-12-31T08:55:40.714Z,105
2022-12-31T08:56:21.237Z,110
2022-12-31T08:57:01.739Z,110
2022-12-31T08:57:42.520Z,110
2022-12-31T08:58:23.043Z,110
2022-12-31T08:59:03.582Z,110
2022-12-31T08:59:44.129Z,110
2022-12-31T09:06:29.754Z,130
2022-12-31T09:07:10.393Z,130
2022-12-31T09:07:50.942Z,135
2022-12-31T09:08:31.490Z,135
2022-12-31T09:09:12.025Z,135
2022-12-31T09:09:52.609Z,135
2022-12-31T09:10:33.163Z,135
2022-12-31T09:11:17.832Z,135
2022-12-31T09:11:54.274Z,135
2022-12-31T09:13:41.476Z,130
2022-12-31T09:14:25.368Z,130
2022-12-31T09:15:06.928Z,125
2022-12-31T09:19:21.460Z,110
2022-12-31T09:20:02.007Z,105
2022-12-31T09:20:44.314Z,100
2022-12-31T09:21:23.113Z,95
2022-12-31T09:26:18.796Z,105
2022-12-31T09:27:00.221Z,110
2022-12-31T09:27:40.781Z,110
2022-12-31T09:28:21.318Z,115
2022-12-31T09:31:03.984Z,125
2022-12-31T09:33:42.235Z,140
2022-12-31T09:34:22.787Z,145
2022-12-31T09:35:03.393Z,145
2022-12-31T09:35:43.875Z,145
2022-12-31T09:39:07.458Z,150
2022-12-31T09:39:47.981Z,150
2022-12-31T09:40:28.522Z,150
2022-12-31T09:41:09.083Z,145
2022-12-31T09:41:49.588Z,140
2022-12-31T09:42:30.181Z,135
2022-12-31T09:43:10.739Z,135
2022-12-31T09:43:53.435Z,135
2022-12-31T09:44:31.830Z,135
2022-12-31T09:50:48.994Z,125
2022-12-31T09:51:29.610Z,125
2022-12-31T09:52:10.950Z,130
2022-12-31T09:52:51.553Z,135
2022-12-31T09:56:26.307Z,135
2022-12-31T09:57:06.794Z,135
2022-12-31T09:57:47.325Z,130
2022-12-31T09:58:28.521Z,135
2022-12-31T10:00:41.279Z,130
2022-12-31T10:01:22.024Z,130
2022-12-31T10:02:02.669Z,130
2022-12-31T10:02:43.080Z,130
2022-12-31T10:05:26.161Z,130
2022-12-31T10:06:06.705Z,130
2022-12-31T10:06:47.053Z,125
2022-12-31T10:07:27.705Z,125
2022-12-31T10:10:06.001Z,125
2022-12-31T10:10:46.523Z,120
2022-12-31T10:11:27.065Z,115
2022-12-31T10:12:07.587Z,115
2022-12-31T10:16:26.923Z,115
2022-12-31T10:17:08.390Z,115
2022-12-31T10:17:52.390Z,120
2022-12-31T10:18:35.396Z,120
2022-12-31T10:20:48.165Z,120
2022-12-31T10:21:28.653Z,120
2022-12-31T10:22:09.205Z,120
2022-12-31T10:22:49.727Z,120
2022-12-31T10:26:53.491Z,125
2022-12-31T10:27:34.364Z,120
2022-12-31T10:28:14.879Z,120
2022-12-31T10:28:56.391Z,120
2022-12-31T10:29:36.952Z,120
2022-12-31T10:30:17.593Z,120
2022-12-31T10:37:03.553Z,120
2022-12-31T10:37:44.074Z,120
2022-12-31T10:38:24.592Z,120
2022-12-31T10:39:10.702Z,120
2022-12-31T10:39:45.675Z,120
2022-12-31T10:40:26.266Z,120
2022-12-31T10:45:53.254Z,120
2022-12-31T10:46:33.812Z,120
2022-12-31T10:47:14.316Z,120
2022-12-31T10:47:54.849Z,120
2022-12-31T10:48:35.581Z,120
2022-12-31T10:49:16.087Z,120
2022-12-31T10:49:57.530Z,120
2022-12-31T10:56:16.155Z,125
2022-12-31T10:56:56.599Z,125
2022-12-31T10:57:37.133Z,125
2022-12-31T11:00:15.379Z,135
2022-12-31T11:00:56.199Z,135
2022-12-31T11:01:36.725Z,140
2022-12-31T11:02:17.390Z,140
2022-12-31T11:05:39.955Z,140
2022-12-31T11:06:20.530Z,140
2022-12-31T11:07:01.014Z,145
2022-12-31T11:07:41.580Z,145
2022-12-31T11:08:22.145Z,145
2022-12-31T11:09:02.682Z,145
2022-12-31T11:09:43.233Z,150
2022-12-31T11:10:23.829Z,150
2022-12-31T11:11:04.364Z,150
2022-12-31T11:11:44.908Z,150
2022-12-31T11:18:30.394Z,145
2022-12-31T11:21:09.064Z,145
2022-12-31T11:21:50.389Z,145
2022-12-31T11:22:30.925Z,145
2022-12-31T11:25:10.573Z,150
2022-12-31T11:25:51.058Z,150
2022-12-31T11:26:31.615Z,150
2022-12-31T11:27:12.181Z,145
2022-12-31T11:31:12.695Z,140
2022-12-31T11:31:53.183Z,140
2022-12-31T11:32:33.734Z,135
2022-12-31T11:33:14.285Z,135
2022-12-31T11:37:17.479Z,140
2022-12-31T11:37:57.993Z,140
2022-12-31T11:38:39.346Z,140
2022-12-31T11:39:19.894Z,140
2022-12-31T11:40:00.513Z,140
2022-12-31T11:40:40.968Z,140
2022-12-31T11:41:21.538Z,140
2022-12-31T11:42:02.043Z,140
2022-12-31T11:46:57.784Z,140
2022-12-31T11:47:56.461Z,140
2022-12-31T11:48:34.174Z,140
2022-12-31T11:48:59.385Z,140
2022-12-31T11:51:55.703Z,140
2022-12-31T11:52:36.425Z,140
2022-12-31T11:53:16.970Z,140
2022-12-31T11:53:57.618Z,140
2022-12-31T11:57:20.285Z,140
2022-12-31T11:58:00.961Z,140
2022-12-31T11:58:41.418Z,140
2022-12-31T11:59:22.040Z,140
2022-12-31T12:02:00.699Z,150
2022-12-31T12:02:41.240Z,150
2022-12-31T12:03:21.763Z,150
2022-12-31T12:04:02.371Z,155
2022-12-31T12:09:39.309Z,155
2022-12-31T12:10:20.009Z,160
2022-12-31T12:11:00.548Z,160
2022-12-31T12:11:41.062Z,160
2022-12-31T12:14:34.759Z,155
2022-12-31T12:15:15.292Z,150
2022-12-31T12:15:55.828Z,155
2022-12-31T12:16:37.061Z,145
2022-12-31T12:20:00.424Z,135
2022-12-31T12:20:40.951Z,135
2022-12-31T12:21:21.492Z,135
2022-12-31T12:22:02.030Z,135
2022-12-31T12:22:46.454Z,135
2022-12-31T12:23:23.064Z,135
2022-12-31T12:24:03.627Z,135
2022-12-31T12:24:44.267Z,135
2022-12-31T12:29:29.652Z,135
2022-12-31T12:30:10.936Z,135
2022-12-31T12:30:51.460Z,130
2022-12-31T12:31:32.056Z,125
2022-12-31T12:32:12.547Z,120
2022-12-31T12:32:53.095Z,120
2022-12-31T12:33:33.634Z,120
2022-12-31T12:34:14.159Z,115
2022-12-31T12:40:59.462Z,115
2022-12-31T12:41:39.988Z,115
2022-12-31T12:42:20.537Z,115
2022-12-31T12:43:01.069Z,115
2022-12-31T12:43:41.606Z,115
2022-12-31T12:44:22.172Z,115
2022-12-31T12:45:02.701Z,115
2022-12-31T12:45:46.303Z,115
2022-12-31T12:46:23.894Z,115
2022-12-31T12:47:04.405Z,115
2022-12-31T12:52:42.173Z,110
2022-12-31T12:53:22.675Z,110
2022-12-31T12:54:03.189Z,105
2022-12-31T12:54:43.850Z,105
2022-12-31T12:58:06.684Z,110
2022-12-31T12:58:47.712Z,110
2022-12-31T12:59:28.258Z,110
2022-12-31T13:00:08.774Z,110
2022-12-31T13:00:49.303Z,110
2022-12-31T13:01:29.912Z,110
2022-12-31T13:02:10.443Z,110
2022-12-31T13:02:50.858Z,110
2022-12-31T13:03:31.591Z,110
2022-12-31T13:05:49.644Z,110
2022-12-31T13:06:30.176Z,110
2022-12-31T13:07:10.733Z,110
2022-12-31T13:07:51.283Z,110
2022-12-31T13:11:54.551Z,105
2022-12-31T13:13:05.060Z,105
2022-12-31T13:13:24.501Z,105
2022-12-31T13:13:56.153Z,105
2022-12-31T13:14:36.703Z,105
2022-12-31T13:15:17.258Z,105
2022-12-31T13:15:57.905Z,105
2022-12-31T13:18:11.400Z,105
2022-12-31T13:18:51.921Z,105
2022-12-31T13:19:32.464Z,105
2022-12-31T13:20:13.941Z,105
2022-12-31T13:22:33.757Z,105
2022-12-31T13:23:14.364Z,105
2022-12-31T13:23:54.965Z,105
2022-12-31T13:24:35.576Z,100
2022-12-31T13:27:50.450Z,100
2022-12-31T13:28:30.966Z,100
2022-12-31T13:29:11.659Z,100
2022-12-31T13:29:52.209Z,100
2022-12-31T13:32:48.264Z,105
2022-12-31T13:33:29.616Z,105
2022-12-31T13:34:10.192Z,105
2022-12-31T13:36:48.766Z,105
2022-12-31T13:37:29.291Z,105
2022-12-31T13:38:09.876Z,105
2022-12-31T13:38:50.430Z,105
2022-12-31T13:41:33.531Z,100
2022-12-31T13:42:14.056Z,100
2022-12-31T13:42:54.594Z,105
2022-12-31T13:43:35.979Z,100
2022-12-31T13:44:16.527Z,105
2022-12-31T13:44:57.041Z,100
2022-12-31T13:45:37.590Z,100
2022-12-31T13:46:18.179Z,95
2022-12-31T13:51:44.214Z,95
2022-12-31T13:52:24.756Z,95
2022-12-31T13:53:05.279Z,95
2022-12-31T13:53:45.783Z,95
2022-12-31T13:54:26.351Z,95
2022-12-31T13:55:06.879Z,90
2022-12-31T14:00:04.889Z,90
2022-12-31T14:00:45.628Z,90
2022-12-31T14:01:29.473Z,90
2022-12-31T14:02:06.692Z,90
2022-12-31T14:05:29.509Z,85
2022-12-31T14:06:10.032Z,85
2022-12-31T14:06:50.591Z,85
2022-12-31T14:07:36.591Z,85
2022-12-31T14:08:13.219Z,85
2022-12-31T14:08:53.807Z,85
2022-12-31T14:09:34.343Z,85
2022-12-31T14:12:28.464Z,80
2022-12-31T14:13:09.984Z,80
2022-12-31T14:13:50.531Z,80
2022-12-31T14:14:31.003Z,80
2022-12-31T14:16:53.201Z,75
2022-12-31T14:17:39.335Z,75
2022-12-31T14:18:20.089Z,75
2022-12-31T14:19:07.730Z,70
2022-12-31T14:19:52.645Z,70
2022-12-31T14:20:38.954Z,70
2022-12-31T14:21:24.427Z,70
2022-12-31T14:22:11.531Z,70
2022-12-31T14:22:56.341Z,70
2022-12-31T14:23:39.685Z,70
2022-12-31T14:25:11.646Z,65
2022-12-31T14:25:58.225Z,65
2022-12-31T14:26:46.237Z,65
2022-12-31T14:27:39.172Z,65
2022-12-31T14:28:26.199Z,60
2022-12-31T14:30:02.222Z,60
2022-12-31T14:30:52.292Z,60
2022-12-31T14:31:38.238Z,60
2022-12-31T14:32:26.189Z,60
2022-12-31T14:33:57.628Z,55
2022-12-31T14:34:42.911Z,55
2022-12-31T14:35:32.697Z,55
2022-12-31T14:36:18.175Z,55
2022-12-31T14:37:10.682Z,55
2022-12-31T14:37:54.700Z,55
2022-12-31T14:39:33.668Z,50
2022-12-31T14:40:20.667Z,50
2022-12-31T14:41:07.032Z,50
2022-12-31T14:41:52.918Z,50
2022-12-31T14:42:40.195Z,50
2022-12-31T14:43:26.204Z,50
2022-12-31T14:44:16.381Z,50
2022-12-31T14:45:07.892Z,45
2022-12-31T14:45:52.722Z,45
2022-12-31T14:48:07.387Z,45
2022-12-31T14:48:57.782Z,45
2022-12-31T14:50:26.447Z,40
2022-12-31T14:53:24.860Z,40
2022-12-31T14:54:05.405Z,40
2022-12-31T14:54:45.972Z,40
2022-12-31T14:55:26.494Z,35
2022-12-31T14:58:49.729Z,35
2022-12-31T14:59:33.316Z,35
2022-12-31T15:00:10.967Z,30
2022-12-31T15:00:51.547Z,30
2022-12-31T15:01:32.141Z,30
2022-12-31T15:02:12.792Z,30
2022-12-31T15:02:53.789Z,30
2022-12-31T15:03:34.341Z,30
2022-12-31T15:08:19.332Z,25
2022-12-31T15:09:04.077Z,25
2022-12-31T15:09:40.433Z,25
2022-12-31T15:10:21.019Z,20
2022-12-31T15:11:01.556Z,20
2022-12-31T15:11:42.096Z,20
2022-12-31T15:12:22.693Z,20
2022-12-31T15:13:03.158Z,20
2022-12-31T15:13:43.738Z,20
2022-12-31T15:22:05.363Z,10
2022-12-31T15:22:48.340Z,10
2022-12-31T15:23:29.661Z,10
2022-12-31T15:24:10.178Z,10
2022-12-31T15:26:38.892Z,10
2022-12-31T15:27:19.636Z,10
2022-12-31T15:28:00.263Z,10
2022-12-31T15:28:40.783Z,5
2022-12-31T15:32:15.075Z,5
2022-12-31T15:32:55.604Z,5
2022-12-31T15:33:36.136Z,5
2022-12-31T15:36:14.364Z,0
2022-12-31T15:36:54.960Z,0
2022-12-31T15:37:35.616Z,0
2022-12-31T15:38:16.319Z,0
2022-12-31T15:41:42.994Z,0
2022-12-31T15:42:37.072Z,0
2022-12-31T15:43:00.495Z,0
2022-12-31T15:43:41.046Z,0
2022-12-31T15:44:21.608Z,0
2022-12-31T15:45:02.147Z,0
2022-12-31T15:45:42.736Z,0
2022-12-31T15:46:23.461Z,0
2022-12-31T15:47:03.940Z,0
2022-12-31T15:50:38.605Z,0
2022-12-31T15:51:19.162Z,0
2022-12-31T15:51:59.732Z,0
2022-12-31T15:52:40.326Z,0
2022-12-31T15:56:55.178Z,0
2022-12-31T15:57:35.709Z,0
2022-12-31T15:58:16.296Z,0
2022-12-31T15:58:56.831Z,0
2022-12-31T16:03:00.247Z,0
2022-12-31T16:03:40.792Z,0
2022-12-31T16:06:19.492Z,0
2022-12-31T16:07:00.077Z,0
2022-12-31T16:07:40.632Z,0
2022-12-31T16:08:21.296Z,0
2022-12-31T16:11:44.189Z,0
2022-12-31T16:12:29.294Z,0
2022-12-31T16:13:05.287Z,0
2022-12-31T16:13:45.777Z,0
2022-12-31T16:16:24.403Z,0
2022-12-31T16:17:04.855Z,0
2022-12-31T16:17:45.398Z,0
2022-12-31T16:18:25.929Z,0
2022-12-31T16:22:29.357Z,0
2022-12-31T16:23:10.039Z,0
2022-12-31T16:23:50.683Z,0
2022-12-31T16:24:31.202Z,0
2022-12-31T16:25:29.965Z,0
2022-12-31T16:25:52.314Z,0
2022-12-31T16:26:32.919Z,0
2022-12-31T16:27:13.474Z,0
2022-12-31T16:34:00.166Z,0
2022-12-31T16:34:40.907Z,0
2022-12-31T16:35:23.499Z,0
2022-12-31T16:36:02.009Z,0
2022-12-31T16:36:42.734Z,0
2022-12-31T16:37:23.344Z,0
2022-12-31T16:38:03.838Z,0
2022-12-31T16:44:08.987Z,0
2022-12-31T16:44:49.514Z,0
2022-12-31T16:45:30.089Z,0
2022-12-31T16:46:10.727Z,0
2022-12-31T16:46:51.319Z,0
2022-12-31T16:47:31.841Z,0
2022-12-31T16:48:16.706Z,0
2022-12-31T16:48:52.860Z,0
2022-12-31T16:49:33.448Z,0
2022-12-31T16:56:19.016Z,0
2022-12-31T16:56:59.571Z,0
2022-12-31T16:57:40.112Z,0
2022-12-31T16:58:20.651Z,0
2022-12-31T16:59:01.252Z,0
2022-12-31T16:59:41.778Z,0
2022-12-31T17:00:22.324Z,0
2022-12-31T17:01:03.003Z,0
2022-12-31T17:05:41.397Z,0
2022-12-31T17:06:21.951Z,0
2022-12-31T17:07:02.465Z,0
2022-12-31T17:07:42.989Z,0
2022-12-31T17:11:46.502Z,0
2022-12-31T17:14:25.305Z,0
2022-12-31T17:15:05.884Z,0
2022-12-31T17:15:46.463Z,0
2022-12-31T17:16:27.109Z,0
2022-12-31T17:19:50.208Z,0
2022-12-31T17:20:30.741Z,0
2022-12-31T17:21:11.264Z,0
2022-12-31T17:21:51.841Z,0
2022-12-31T17:22:36.892Z,0
2022-12-31T17:23:13.827Z,0
2022-12-31T17:28:39.841Z,0
2022-12-31T17:31:25.079Z,0
2022-12-31T17:32:07.316Z,0
2022-12-31T17:32:55.561Z,0
2022-12-31T17:33:41.563Z,0
2022-12-31T17:34:23.993Z,0
2022-12-31T17:35:12.049Z,0
2022-12-31T17:35:57.972Z,0
2022-12-31T17:36:43.993Z,0
2022-12-31T17:37:31.963Z,0
2022-12-31T17:38:16.085Z,0
2022-12-31T17:39:05.962Z,0
2022-12-31T17:39:54.065Z,0
2022-12-31T17:40:52.363Z,0
2022-12-31T17:41:25.532Z,0
2022-12-31T17:42:55.956Z,0
2022-12-31T17:43:39.536Z,0
2022-12-31T17:44:27.497Z,0
2022-12-31T17:45:54.034Z,0
2022-12-31T17:46:36.682Z,0
2022-12-31T17:48:07.978Z,0
2022-12-31T17:48:59.991Z,0
2022-12-31T17:50:31.614Z,0
2022-12-31T17:51:16.043Z,0
2022-12-31T17:52:01.515Z,0
2022-12-31T17:52:44.935Z,0
2022-12-31T17:53:25.598Z,0
2022-12-31T17:54:07.260Z,0
2022-12-31T17:56:20.667Z,0
2022-12-31T17:57:07.519Z,0
2022-12-31T17:57:55.601Z,0
2022-12-31T17:58:44.475Z,0
2022-12-31T17:59:25.263Z,0
2022-12-31T18:00:08.723Z,0
2022-12-31T18:00:54.542Z,0
2022-12-31T18:01:35.473Z,0
2022-12-31T18:02:15.860Z,0
2022-12-31T18:02:57.303Z,0
2022-12-31T18:03:45.003Z,0
2022-12-31T18:05:55.308Z,0
2022-12-31T18:06:36.531Z,0
2022-12-31T18:09:15.734Z,0
2022-12-31T18:09:56.297Z,0
2022-12-31T18:10:36.835Z,0